• Join FlightAware (Why Join?)
  • Login
  • US Flag 
04:23AM EDT


 

Airport Tracker/Info


-or-


 

Live Flight TrackerFlight Track Log ✈ N516QS ✈ 13-Aug-2013 ✈ KSJC - KIAD

Flight Track Log - Related Links

Times and Time Zones

All times are in EDT time to prevent confusion due to time zone crossing. See the N516QS flight status page for this flight to view local times or setup timezone preferences in your user account.

Time Position Orientation Groundspeed Altitude Reporting Facility
EDT Latitude Longitude Course Direction KTS MPH feet Rate Location/Type
10:18AM 37.3833 -121.9500 345° North 179 206 2,700  Level Northern Cal TRACON
10:19AM 37.4333 -121.9667 345° North 224 258 5,100 2,160 Climbing Northern Cal TRACON
10:20AM 37.3833 -121.9000 133° Southeast 239 275 7,100 2,580 Climbing Northern Cal TRACON
10:21AM 37.3333 -121.8500 142° Southeast 292 336 10,300 3,000 Climbing Northern Cal TRACON
10:22AM 37.2978 -121.9069 232° Southwest 300 345 13,100 2,820 Climbing Oakland Center
10:23AM 37.3986 -121.9500 341° North 336 387 16,000 2,460 Climbing Oakland Center
10:24AM 37.4975 -121.8983 23° Northeast 398 458 18,200 2,280 Climbing Oakland Center
10:25AM 37.5714 -121.7839 51° Northeast 423 487 20,700 2,580 Climbing Oakland Center
10:26AM 37.6472 -121.6664 51° Northeast 433 498 23,500 2,580 Climbing Oakland Center
10:27AM 37.7256 -121.5447 51° Northeast 444 511 26,000 2,160 Climbing Oakland Center
10:28AM 37.8083 -121.4172 51° Northeast 461 531 28,000 1,920 Climbing Oakland Center
10:29AM 37.8936 -121.2844 51° Northeast 478 550 30,000 1,800 Climbing Oakland Center
10:30AM 37.9814 -121.1481 51° Northeast 493 567 31,700 1,800 Climbing Oakland Center
10:31AM 38.0611 -120.9542 62° Northeast 526 605 33,700 1,800 Climbing Oakland Center
10:32AM 38.0967 -120.7786 76° East 523 602 35,400 1,440 Climbing Oakland Center
10:33AM 38.1328 -120.5992 76° East 529 609 36,700 1,140 Climbing Oakland Center
10:34AM 38.1703 -120.4119 76° East 546 628 37,800 1,020 Climbing Oakland Center
10:35AM 38.2092 -120.2214 75° East 559 643 38,800 1,020 Climbing Oakland Center
10:36AM 38.2481 -120.0267 76° East 568 654 40,000 1,080 Climbing Oakland Center
10:37AM 38.2850 -119.8336 76° East 565 650 41,000 480 Climbing Oakland Center
10:38AM 38.3239 -119.6406 76° East 565 650 41,000  Level Oakland Center
10:39AM 38.3631 -119.4328 76° East 560 644 41,000  Level Oakland Center
10:40AM 38.4014 -119.2406 76° East 561 646 41,000  Level Oakland Center
10:41AM 38.4375 -119.0469 77° East 564 649 41,000  Level Oakland Center
10:42AM 38.4808 -118.8156 76° East 564 649 41,000  Level Oakland Center
10:43AM 38.5139 -118.6192 78° East 568 654 41,000  Level Oakland Center
10:44AM 38.5483 -118.4211 77° East 572 658 41,000  Level Oakland Center
10:45AM 38.5819 -118.2244 78° East 572 658 41,000  Level Oakland Center
10:46AM 38.6172 -118.0106 78° East 572 658 41,000  Level Oakland Center
10:47AM 38.6469 -117.8292 78° East 571 657 41,000  Level Oakland Center
10:48AM 38.6825 -117.6092 78° East 575 662 41,000  Level Oakland Center
10:49AM 38.7156 -117.4083 78° East 573 659 41,000  Level Oakland Center
10:50AM 38.7475 -117.2064 78° East 574 661 41,000  Level Oakland Center
10:51AM 38.7708 -117.0458 79° East 571 657 41,000  Level Salt Lake Center
10:52AM 38.8028 -116.8444 78° East 572 658 41,000  Level Salt Lake Center
10:53AM 38.8333 -116.6433 79° East 571 657 41,000  Level Salt Lake Center
10:54AM 38.8639 -116.4419 79° East 574 661 41,000  Level Salt Lake Center
10:55AM 38.8933 -116.2425 79° East 570 656 41,000  Level Salt Lake Center
10:56AM 38.9244 -116.0422 79° East 571 657 41,000  Level Salt Lake Center
10:57AM 38.9589 -115.8008 80° East 573 659 41,000  Level Salt Lake Center
10:58AM 38.9878 -115.5975 80° East 576 663 41,000  Level Salt Lake Center
11:00AM 39.0169 -115.3944 79° East 579 666 41,000  Level Salt Lake Center
11:01AM 39.0439 -115.1978 80° East 578 665 41,000  Level Salt Lake Center
11:02AM 39.0739 -114.9936 79° East 580 667 41,000  Level Salt Lake Center
11:03AM 39.1083 -114.7483 80° East 580 667 41,000  Level Salt Lake Center
11:04AM 39.1358 -114.5444 80° East 579 666 41,000  Level Salt Lake Center
11:05AM 39.1628 -114.3403 80° East 578 665 41,000  Level Salt Lake Center
11:06AM 39.1906 -114.1344 80° East 581 669 41,000  Level Salt Lake Center
11:07AM 39.2153 -113.9314 81° East 578 665 41,000  Level Salt Lake Center
11:08AM 39.2419 -113.7275 80° East 577 664 41,000  Level Salt Lake Center
11:09AM 39.2664 -113.5233 81° East 575 662 41,000  Level Salt Lake Center
11:10AM 39.2972 -113.2769 81° East 579 666 41,000  Level Salt Lake Center
11:11AM 39.3244 -113.0728 80° East 578 665 41,000  Level Salt Lake Center
11:12AM 39.3517 -112.8681 80° East 578 665 41,000  Level Salt Lake Center
11:13AM 39.3794 -112.6625 80° East 580 667 41,000  Level Salt Lake Center
11:14AM 39.4047 -112.4658 80° East 577 664 41,000  Level Salt Lake Center
11:15AM 39.4361 -112.2208 81° East 577 664 41,000  Level Salt Lake Center
11:16AM 39.4617 -112.0167 81° East 579 666 41,000  Level Salt Lake Center
11:17AM 39.4872 -111.8125 81° East 579 666 41,000  Level Salt Lake Center
11:18AM 39.5122 -111.6075 81° East 581 669 41,000  Level Salt Lake Center
11:19AM 39.5378 -111.4022 81° East 583 671 41,000  Level Salt Lake Center
11:20AM 39.5653 -111.1842 81° East 570 656 41,000  Level Salt Lake Center
11:21AM 39.5914 -110.9553 82° East 573 659 41,000  Level Salt Lake Center
11:22AM 39.6150 -110.7594 81° East 574 661 41,000  Level Salt Lake Center
11:23AM 39.6411 -110.5294 82° East 577 664 41,000  Level Salt Lake Center
11:24AM 39.6631 -110.3328 82° East 576 663 41,000  Level Salt Lake Center
11:25AM 39.6872 -110.1039 82° East 574 661 41,000  Level Salt Lake Center
11:26AM 39.7081 -109.9072 82° East 575 662 41,000  Level Salt Lake Center
11:27AM 39.7319 -109.6758 82° East 579 666 41,000  Level Salt Lake Center
11:28AM 39.7531 -109.4792 82° East 575 662 41,000  Level Salt Lake Center
11:30AM 39.7731 -109.2811 82° East 576 663 41,000  Level Salt Lake Center
11:31AM 39.7972 -109.0497 82° East 576 663 41,000  Level Salt Lake Center
11:32AM 39.8178 -108.8486 82° East 577 664 41,000  Level Salt Lake Center
11:33AM 39.8403 -108.6125 83° East 576 663 41,000  Level Salt Lake Center
11:34AM 39.8589 -108.4125 83° East 576 663 41,000  Level Salt Lake Center
11:35AM 39.8772 -108.2153 83° East 573 659 41,000  Level Salt Lake Center
11:36AM 39.8989 -107.9864 83° East 572 658 41,000  Level Salt Lake Center
11:37AM 39.9197 -107.7206 84° East 573 659 41,000  Level Denver Center
11:38AM 39.9408 -107.4900 83° East 573 659 41,000  Level Denver Center
11:39AM 39.9575 -107.2928 84° East 573 659 41,000  Level Denver Center
11:40AM 39.9764 -107.0625 84° East 572 658 41,000  Level Denver Center
11:41AM 39.9922 -106.8650 84° East 573 659 41,000  Level Denver Center
11:42AM 40.0142 -106.5997 84° East 575 662 41,000  Level Denver Center
11:44AM 40.0331 -106.3750 84° East 575 662 41,000  Level Denver Center
11:45AM 40.0486 -106.1686 84° East 573 659 41,000  Level Denver Center
11:46AM 40.0661 -105.9192 85° East 575 662 41,000  Level Denver Center
11:47AM 40.0811 -105.7078 85° East 590 679 41,000  Level Denver Center
11:48AM 40.0944 -105.4997 85° East 575 662 41,000  Level Denver Center
11:49AM 40.1081 -105.2925 85° East 571 657 41,000  Level Denver Center
11:50AM 40.1244 -105.0433 85° East 571 657 41,000  Level Denver Center
11:51AM 40.1383 -104.8322 85° East 578 665 41,000  Level Denver Center
11:52AM 40.1503 -104.6233 86° East 573 659 41,000  Level Denver Center
11:53AM 40.1631 -104.4108 85° East 583 671 41,000  Level Denver Center
11:54AM 40.1767 -104.1633 86° East 565 650 41,000  Level Denver Center
11:55AM 40.1858 -103.9944 86° East 581 669 41,000  Level Denver Center
11:56AM 40.1997 -103.7483 86° East 563 648 41,000  Level Denver Center
11:57AM 40.2117 -103.5028 86° East 568 654 41,000  Level Denver Center
11:58AM 40.2225 -103.2950 86° East 574 661 41,000  Level Denver Center
11:59AM 40.2322 -103.0869 86° East 574 661 41,000  Level Denver Center
12:00PM 40.2425 -102.8797 86° East 571 657 41,000  Level Denver Center
12:01PM 40.2528 -102.6511 87° East 574 661 41,000  Level Denver Center
12:03PM 40.2597 -102.4522 87° East 574 661 41,000  Level Denver Center
12:04PM 40.2711 -102.1861 87° East 574 661 41,000  Level Denver Center
12:05PM 40.2800 -101.9533 87° East 577 664 41,000  Level Denver Center
12:06PM 40.2878 -101.7536 87° East 576 663 41,000  Level Denver Center
12:07PM 40.2964 -101.5200 87° East 579 666 41,000  Level Denver Center
12:08PM 40.3022 -101.3214 88° East 574 661 41,000  Level Denver Center
12:09PM 40.3097 -101.0886 88° East 575 662 41,000 240 Level Denver Center
12:10PM 40.3164 -100.8575 88° East 573 659 41,600 480 Climbing Denver Center
12:11PM 40.3222 -100.6272 88° East 571 657 42,100 480 Climbing Denver Center
12:12PM 40.3278 -100.4300 88° East 570 656 42,600 480 Climbing Denver Center
12:13PM 40.3331 -100.2017 88° East 566 651 43,200 540 Climbing Denver Center
12:14PM 40.3372 -100.0061 88° East 564 649 43,800 600 Climbing Denver Center
12:15PM 40.3411 -99.8250 88° East 562 647 44,500 540 Climbing Denver Center
12:16PM 40.3456 -99.5811 89° East 560 644 45,000 240 Climbing Denver Center
12:17PM 40.3486 -99.3781 89° East 559 643 45,000  Level Denver Center
12:18PM 40.3525 -99.1347 89° East 560 644 45,000  Level Denver Center
12:20PM 40.3539 -98.9317 89° East 560 644 45,000  Level Denver Center
12:21PM 40.3567 -98.7289 89° East 560 644 45,000  Level Denver Center
12:22PM 40.3575 -98.5256 90° East 561 646 45,000  Level Denver Center
12:23PM 40.3581 -98.2378 90° East 567 652 45,000  Level Minneapolis Center
12:24PM 40.3592 -97.9514 90° East 565 650 45,000  Level Minneapolis Center
12:25PM 40.3600 -97.7481 90° East 561 646 45,000  Level Minneapolis Center
12:26PM 40.3608 -97.5836 90° East 563 648 45,000  Level Minneapolis Center
12:27PM 40.3600 -97.3164 90° East 561 646 45,000  Level Minneapolis Center
12:28PM 40.3581 -97.1108 91° East 563 648 45,000  Level Minneapolis Center
12:29PM 40.3581 -96.9086 90° East 560 644 45,000  Level Minneapolis Center
12:30PM 40.3567 -96.7453 91° East 562 647 45,000  Level Minneapolis Center
12:32PM 40.3558 -96.5031 90° East 558 642 45,000  Level Minneapolis Center
12:33PM 40.3525 -96.2589 91° East 560 644 45,000  Level Minneapolis Center
12:34PM 40.3497 -96.0169 91° East 559 643 45,000  Level Minneapolis Center
12:35PM 40.3475 -95.8139 91° East 559 643 45,000  Level Minneapolis Center
12:36PM 40.3447 -95.6103 91° East 561 646 45,000  Level Minneapolis Center
12:37PM 40.3403 -95.4075 92° East 560 644 45,000  Level Minneapolis Center
12:38PM 40.3375 -95.2044 91° East 560 644 45,000  Level Minneapolis Center
12:39PM 40.3328 -94.9747 91° East 560 644 45,000  Level Kansas City Center
12:40PM 40.3286 -94.7775 92° East 561 646 45,000  Level Kansas City Center
12:41PM 40.3219 -94.5464 92° East 564 649 45,000  Level Kansas City Center
12:42PM 40.3167 -94.3483 92° East 566 651 45,000  Level Kansas City Center
12:43PM 40.3094 -94.1178 92° East 566 651 45,000  Level Kansas City Center
12:44PM 40.3011 -93.9189 93° East 569 655 45,000  Level Kansas City Center
12:45PM 40.2947 -93.7153 92° East 567 652 45,000  Level Kansas City Center
12:46PM 40.2881 -93.5125 92° East 564 649 45,000  Level Kansas City Center
12:47PM 40.2808 -93.3083 93° East 565 650 45,000  Level Kansas City Center
12:48PM 40.2714 -93.0644 93° East 565 650 45,000  Level Kansas City Center
12:49PM 40.2639 -92.8694 93° East 564 649 45,000  Level Kansas City Center
12:50PM 40.2544 -92.6411 93° East 563 648 45,000  Level Kansas City Center
12:51PM 40.2467 -92.4450 93° East 563 648 45,000  Level Kansas City Center
12:52PM 40.2364 -92.2267 93° East 569 655 45,000  Level Kansas City Center
12:53PM 40.2267 -92.0242 94° East 566 651 45,000  Level Kansas City Center
12:54PM 40.2161 -91.8206 94° East 565 650 45,000  Level Kansas City Center
12:55PM 40.2058 -91.6156 94° East 567 652 45,000  Level Kansas City Center
12:56PM 40.1933 -91.3708 94° East 568 654 45,000  Level Kansas City Center
12:58PM 40.1953 -91.1694 89° East 563 648 45,000  Level Kansas City Center
12:59PM 40.2044 -90.9706 86° East 556 640 45,000  Level Kansas City Center
01:00PM 40.2094 -90.7647 88° East 557 641 45,000  Level Kansas City Center
01:01PM 40.2142 -90.5633 88° East 557 641 45,000  Level Kansas City Center
01:02PM 40.2197 -90.3219 88° East 556 640 45,000  Level Kansas City Center
01:03PM 40.2231 -90.1203 89° East 558 642 45,000  Level Kansas City Center
01:04PM 40.2261 -89.9183 89° East 560 644 45,000  Level Kansas City Center
01:05PM 40.2292 -89.7172 89° East 560 644 45,000  Level Kansas City Center
01:06PM 40.2317 -89.5167 89° East 558 642 45,000  Level Kansas City Center
01:07PM 40.2350 -89.1969 89° East 556 640 45,000  Level Chicago Center
01:08PM 40.2364 -88.9964 89° East 555 639 45,000  Level Chicago Center
01:09PM 40.2381 -88.7950 89° East 557 641 45,000  Level Chicago Center
01:10PM 40.2400 -88.5925 89° East 558 642 45,000  Level Chicago Center
01:11PM 40.2408 -88.3594 90° East 557 641 45,000  Level Chicago Center
01:12PM 40.2422 -88.1583 89° East 559 643 45,000  Level Chicago Center
01:13PM 40.2422 -87.9572 90° East 558 642 45,000  Level Chicago Center
01:14PM 40.2425 -87.7569 90° East 556 640 45,000  Level Chicago Center
01:15PM 40.2419 -87.5561 90° East 557 641 45,000  Level Chicago Center
01:17PM 40.2400 -87.3286 91° East 549 632 45,000  Level Chicago Center
01:18PM 40.2389 -87.1264 90° East 555 639 45,000  Level Chicago Center
01:19PM 40.2378 -86.9275 90° East 550 633 45,000  Level Chicago Center
01:20PM 40.2350 -86.7272 91° East 549 632 45,000  Level Chicago Center
01:21PM 40.2328 -86.5256 91° East 552 635 45,000  Level Chicago Center
01:22PM 40.2300 -86.2839 91° East 552 635 45,000  Level Chicago Center
01:23PM 40.2269 -86.0831 91° East 551 634 45,000  Level Chicago Center
01:24PM 40.2242 -85.8831 91° East 547 629 45,000  Level Chicago Center
01:24PM 40.2206 -85.7600 92° East 551 634 45,000  Level Indianapolis Center
01:25PM 40.2158 -85.5608 92° East 549 632 45,000  Level Indianapolis Center
01:26PM 40.2117 -85.3592 91° East 551 634 45,000  Level Indianapolis Center
01:27PM 40.2056 -85.1592 92° East 552 635 45,000  Level Indianapolis Center
01:29PM 40.2003 -84.9600 92° East 551 634 45,000  Level Indianapolis Center
01:30PM 40.1950 -84.7200 92° East 551 634 45,000  Level Indianapolis Center
01:31PM 40.1886 -84.5189 92° East 553 636 45,000  Level Indianapolis Center
01:32PM 40.1831 -84.3172 92° East 556 640 45,000  Level Indianapolis Center
01:33PM 40.1753 -84.1161 93° East 555 639 45,000  Level Indianapolis Center
01:34PM 40.1689 -83.9150 92° East 556 640 45,000  Level Indianapolis Center
01:35PM 40.1608 -83.6931 93° East 554 638 45,000  Level Indianapolis Center
01:36PM 40.1528 -83.4883 93° East 559 643 45,000  Level Indianapolis Center
01:37PM 40.1453 -83.2847 93° East 557 641 45,000  Level Indianapolis Center
01:38PM 40.1364 -83.0819 93° East 556 640 45,000  Level Indianapolis Center
01:39PM 40.1261 -82.8781 94° East 558 642 45,000  Level Indianapolis Center
01:40PM 40.1181 -82.6739 93° East 559 643 45,000  Level Indianapolis Center
01:41PM 40.1072 -82.4378 93° East 557 641 45,000  Level Indianapolis Center
01:42PM 40.0958 -82.2353 94° East 555 639 45,000  Level Indianapolis Center
01:43PM 40.0858 -82.0306 94° East 559 643 45,000  Level Indianapolis Center
01:44PM 40.0750 -81.8281 94° East 559 643 45,000  Level Indianapolis Center
01:45PM 40.0594 -81.6233 96° East 562 647 45,000  Level Indianapolis Center
01:46PM 40.0142 -81.4294 107° East 560 644 45,000  Level Indianapolis Center
01:47PM 39.9642 -81.2392 109° East 555 639 45,000 -420 Level Indianapolis Center
01:48PM 39.9083 -81.0308 109° East 547 629 44,200 -1,140 Descending Indianapolis Center
01:49PM 39.8575 -80.8386 109° East 553 636 42,700 -1,680 Descending Indianapolis Center
01:50PM 39.8072 -80.6506 109° East 551 634 40,800 -2,040 Descending Indianapolis Center
01:51PM 39.7783 -80.4464 100° East 570 656 38,500 -2,340 Descending Indianapolis Center
01:52PM 39.7308 -80.2483 107° East 575 662 36,100 -2,400 Descending Indianapolis Center
01:53PM 39.6667 -80.0547 113° Southeast 581 669 33,600 -2,400 Descending Indianapolis Center
01:54PM 39.6044 -79.8578 112° Southeast 586 674 31,200 -2,280 Descending Indianapolis Center
01:55PM 39.5428 -79.6606 112° Southeast 553 636 28,700 -2,040 Descending Washington Center
01:56PM 39.4944 -79.4911 110° East 519 597 26,800 -2,040 Descending Washington Center
01:57PM 39.4583 -79.3144 105° East 507 583 24,600 -1,440 Descending Washington Center
01:58PM 39.4261 -79.1328 103° East 490 564 24,000 -1,020 Descending Washington Center
01:59PM 39.3975 -78.9728 103° East 475 547 22,700 -1,440 Descending Washington Center
02:00PM 39.3794 -78.8753 103° East 462 532 21,200 -2,700 Descending Washington Center
02:01PM 39.3450 -78.6806 103° East 442 509 17,300 -3,120 Descending Washington Center
02:02PM 39.3172 -78.5372 104° East 428 493 15,100 -1,980 Descending Washington Center
02:03PM 39.2933 -78.4047 103° East 399 459 13,400 -1,440 Descending Washington Center
02:04PM 39.2481 -78.2906 117° Southeast 375 432 12,200 -1,620 Descending Washington Center
02:05PM 39.1978 -78.1975 125° Southeast 338 389 10,200 -1,620 Descending Washington Center
02:06PM 39.1478 -78.1047 125° Southeast 332 382 9,100 -600 Descending Washington Center
02:07PM 39.0994 -78.0147 125° Southeast 312 359 9,100 -600 Level Washington Center
02:08PM 39.0514 -77.9250 125° Southeast 312 359 8,000 -1,260 Descending Washington Center
02:09PM 39.0011 -77.8247 123° Southeast 305 351 6,600 -1,020 Descending Washington Center
02:10PM 38.9631 -77.7328 118° Southeast 305 351 6,000 -360 Descending Washington Center
02:11PM 38.9439 -77.6361 104° East 284 327 6,000 -600 Level Washington Center
02:13PM 39.0725 -77.5667 North  Level FlightAware Approximate
02:13PM 38.8167 -77.5667 North 212 244 4,200  Level Potomac TRACON
02:14PM 38.7833 -77.5500 159° South 224 258 3,100 -900 Descending Potomac TRACON
02:15PM 38.7667 -77.4833 108° East 197 227 2,500 -600 Descending Potomac TRACON
02:16PM 38.8000 -77.4333 49° Northeast 167 192 2,000 -360 Descending Potomac TRACON
02:17PM 38.8500 -77.4333 360° North 163 188 1,800 -540 Descending Potomac TRACON
02:18PM 38.9000 -77.4333 360° North 141 162 1,000 -840 Descending Potomac TRACON
02:20PM 38.9333 -77.4500 354° North  Level FlightAware Approximate
02:27PM 38.9474 -77.4599 354° North  Level Estimated
02:28PM 38.9474 -77.4599 354° North  Level Estimated
02:29PM 38.9474 -77.4599 354° North  Level Estimated